Time;durP1;ratioP1;P1;durP2;ratioP2;P2;SDS_P1;SDS_P2;PMS_P1;PMS_P2;Temp;Humidity;BMP_temperature;BMP_pressure;BME280_temperature;BME280_humidity;BME280_pressure;Samples;Min_cycle;Max_cycle;Signal;HPM_P1;HPM_P2
2022/09/21 00:02:01;;;;;;;2.17;1.33;;;;;;;6.82;100.00;99315.72;5045565;28;20041;-56
2022/09/21 00:04:46;;;;;;;2.80;1.58;;;;;;;7.54;100.00;99312.50;5049210;28;20048;-53
2022/09/21 00:07:31;;;;;;;3.40;1.23;;;;;;;8.08;100.00;99303.84;5040367;28;20461;-54
2022/09/21 00:10:15;;;;;;;2.47;0.90;;;;;;;8.29;100.00;99308.91;5045471;28;20041;-52
2022/09/21 00:13:01;;;;;;;1.98;1.08;;;;;;;8.91;100.00;99312.75;5038414;28;20112;-57
2022/09/21 00:15:47;;;;;;;3.05;1.40;;;;;;;8.86;100.00;99311.22;5038351;28;20033;-57
2022/09/21 00:18:32;;;;;;;2.58;1.17;;;;;;;8.74;100.00;99315.34;5032020;28;20056;-55
2022/09/21 00:21:17;;;;;;;2.40;1.05;;;;;;;8.97;100.00;99309.81;5031245;28;20063;-55
2022/09/21 00:24:01;;;;;;;1.95;0.88;;;;;;;9.07;100.00;99307.56;5035106;28;20392;-54
2022/09/21 00:26:46;;;;;;;1.60;0.90;;;;;;;9.23;100.00;99318.03;5043816;28;20033;-57
2022/09/21 00:29:31;;;;;;;1.80;1.15;;;;;;;9.12;100.00;99318.63;5047887;28;20115;-56
2022/09/21 00:32:15;;;;;;;1.77;0.70;;;;;;;9.36;100.00;99319.06;5043387;28;20037;-57
2022/09/21 00:35:03;;;;;;;2.15;1.00;;;;;;;9.35;100.00;99321.75;5039175;28;20418;-55
2022/09/21 00:37:48;;;;;;;2.22;0.90;;;;;;;9.41;100.00;99321.41;5039347;28;20488;-55
2022/09/21 00:40:33;;;;;;;2.00;0.80;;;;;;;9.53;99.21;99319.88;5042607;28;20133;-55
2022/09/21 00:43:17;;;;;;;1.70;0.70;;;;;;;9.88;100.00;99318.84;5052213;28;20164;-56
2022/09/21 00:46:09;;;;;;;1.50;0.75;;;;;;;10.22;97.20;99316.03;5038412;28;20104;-57
2022/09/21 00:48:55;;;;;;;1.02;0.70;;;;;;;10.03;95.49;99322.34;5025438;28;20448;-56
2022/09/21 00:51:41;;;;;;;1.27;0.70;;;;;;;9.82;95.44;99325.28;5034744;28;20036;-58
2022/09/21 00:54:31;;;;;;;1.30;0.70;;;;;;;9.65;98.28;99325.34;5039868;28;20033;-55
2022/09/21 00:57:20;;;;;;;1.43;0.90;;;;;;;9.70;98.82;99323.31;5033394;28;20080;-56
2022/09/21 01:00:08;;;;;;;1.00;0.52;;;;;;;9.74;98.14;99324.88;5042871;28;20033;-56
2022/09/21 01:03:00;;;;;;;1.45;0.55;;;;;;;9.77;97.22;99329.91;5041083;28;20087;-55
2022/09/21 01:05:44;;;;;;;1.15;0.60;;;;;;;9.58;98.07;99330.94;5042905;28;20040;-55
2022/09/21 01:08:29;;;;;;;1.55;0.80;;;;;;;9.42;99.68;99327.47;5035847;28;20064;-54
2022/09/21 01:11:39;;;;;;;1.27;0.70;;;;;;;9.63;99.14;99325.44;5038692;28;20029;-58
2022/09/21 01:14:45;;;;;;;1.48;0.80;;;;;;;9.85;97.48;99325.09;5037193;28;20048;-56
2022/09/21 01:17:41;;;;;;;1.60;0.70;;;;;;;9.75;98.02;99331.78;5046935;28;20045;-57
2022/09/21 01:20:43;;;;;;;2.05;0.60;;;;;;;9.92;98.21;99336.03;5040989;28;20112;-57
2022/09/21 01:23:38;;;;;;;1.88;0.80;;;;;;;10.00;98.05;99335.63;5039456;28;20083;-57
2022/09/21 01:26:25;;;;;;;2.25;0.70;;;;;;;9.69;95.97;99325.13;5048312;28;20068;-56
2022/09/21 01:29:12;;;;;;;1.15;0.70;;;;;;;9.77;99.61;99332.53;5044769;28;20045;-55
2022/09/21 01:32:07;;;;;;;1.98;0.85;;;;;;;10.02;100.00;99328.50;5051673;28;20037;-55
2022/09/21 01:35:14;;;;;;;2.75;0.77;;;;;;;10.06;96.91;99331.78;5041213;28;20164;-55
2022/09/21 01:38:04;;;;;;;2.20;0.68;;;;;;;9.93;96.32;99335.13;5037422;28;20037;-52
2022/09/21 01:40:54;;;;;;;2.45;0.70;;;;;;;9.93;96.95;99334.28;5046585;28;20485;-54
2022/09/21 01:43:44;;;;;;;1.23;0.73;;;;;;;9.86;95.57;99336.38;5040231;28;20508;-55
2022/09/21 01:46:31;;;;;;;2.15;0.60;;;;;;;9.33;97.15;99337.53;5038744;28;20036;-55
2022/09/21 01:49:22;;;;;;;1.90;1.15;;;;;;;9.24;96.88;99343.25;5042228;28;20037;-56
2022/09/21 01:52:34;;;;;;;1.38;1.08;;;;;;;8.83;98.18;99339.31;5038682;28;20049;-56
2022/09/21 01:55:28;;;;;;;1.30;0.60;;;;;;;8.90;100.00;99345.88;5045626;28;20476;-60
2022/09/21 01:58:30;;;;;;;1.08;0.70;;;;;;;8.99;100.00;99342.78;5037183;28;20388;-56
2022/09/21 02:01:22;;;;;;;2.47;1.13;;;;;;;8.78;99.40;99347.34;5062749;28;20069;-55
2022/09/21 02:04:11;;;;;;;1.42;0.80;;;;;;;8.00;100.00;99343.34;5042435;28;20025;-57
2022/09/21 02:06:56;;;;;;;3.83;1.02;;;;;;;8.09;100.00;99349.91;5047168;28;20116;-57
2022/09/21 02:09:40;;;;;;;1.80;1.08;;;;;;;8.08;100.00;99346.44;5037191;28;20049;-54
2022/09/21 02:12:25;;;;;;;2.30;1.05;;;;;;;7.56;100.00;99344.53;5041407;28;20362;-55
2022/09/21 02:15:10;;;;;;;1.92;1.02;;;;;;;7.50;100.00;99343.09;5038297;28;20113;-53
2022/09/21 02:18:05;;;;;;;4.95;1.20;;;;;;;7.65;100.00;99346.75;5039172;28;20112;-57
2022/09/21 02:20:57;;;;;;;1.30;0.85;;;;;;;7.86;100.00;99347.50;5037334;28;20038;-56
2022/09/21 02:24:12;;;;;;;2.22;0.80;;;;;;;7.75;100.00;99347.16;5040325;28;20080;-55
2022/09/21 02:27:33;;;;;;;1.30;0.88;;;;;;;7.93;100.00;99350.63;5044691;28;20476;-56
2022/09/21 02:30:20;;;;;;;1.70;0.90;;;;;;;8.04;100.00;99341.44;5037310;28;20060;-58
2022/09/21 02:33:04;;;;;;;1.10;0.80;;;;;;;8.36;100.00;99352.03;5044534;28;20032;-53
2022/09/21 02:36:00;;;;;;;1.60;0.70;;;;;;;8.19;100.00;99352.91;5038370;28;20362;-56
2022/09/21 02:38:51;;;;;;;1.85;0.90;;;;;;;7.88;100.00;99357.84;5039038;28;20128;-54
2022/09/21 02:41:44;;;;;;;1.25;0.75;;;;;;;7.77;100.00;99353.13;5044063;28;20467;-57
2022/09/21 02:44:39;;;;;;;1.52;1.10;;;;;;;7.46;100.00;99358.03;5042279;28;20155;-55
2022/09/21 02:47:33;;;;;;;1.95;0.90;;;;;;;7.17;100.00;99351.53;5038047;28;20120;-56
2022/09/21 02:50:28;;;;;;;2.25;1.48;;;;;;;7.02;100.00;99357.38;5042594;28;20045;-56
2022/09/21 02:53:20;;;;;;;2.85;1.30;;;;;;;6.56;100.00;99356.78;5039924;28;20033;-55
2022/09/21 02:56:07;;;;;;;2.17;1.42;;;;;;;6.24;100.00;99363.25;5041744;28;20041;-54
2022/09/21 02:58:55;;;;;;;2.63;1.48;;;;;;;6.30;100.00;99363.91;5038494;28;20076;-55
2022/09/21 03:01:40;;;;;;;3.70;1.33;;;;;;;6.59;100.00;99364.44;5022586;28;20047;-52
2022/09/21 03:04:26;;;;;;;2.40;1.58;;;;;;;5.79;100.00;99362.41;5036444;28;20075;-54
2022/09/21 03:07:11;;;;;;;2.80;1.60;;;;;;;5.84;100.00;99357.88;5039396;28;20041;-54
2022/09/21 03:09:56;;;;;;;2.45;1.50;;;;;;;5.73;100.00;99365.25;5036731;28;20144;-52
2022/09/21 03:12:43;;;;;;;2.85;1.92;;;;;;;5.49;100.00;99370.47;5044797;28;20056;-55
2022/09/21 03:15:28;;;;;;;1.90;1.50;;;;;;;5.35;100.00;99369.25;5041888;28;20120;-54
2022/09/21 03:18:12;;;;;;;3.45;1.80;;;;;;;5.25;100.00;99376.53;5037101;28;20049;-57
2022/09/21 03:20:57;;;;;;;2.45;1.80;;;;;;;5.22;100.00;99381.84;5050624;28;20037;-55
2022/09/21 03:23:41;;;;;;;3.90;1.80;;;;;;;5.48;100.00;99372.25;5043920;28;20036;-55
2022/09/21 03:26:25;;;;;;;5.38;1.88;;;;;;;5.52;100.00;99376.41;5053329;28;20064;-54
2022/09/21 03:29:10;;;;;;;3.38;2.00;;;;;;;5.46;100.00;99381.84;5037871;28;20040;-53
2022/09/21 03:31:55;;;;;;;4.90;2.13;;;;;;;5.24;100.00;99385.22;5036275;28;20381;-54
2022/09/21 03:34:40;;;;;;;3.25;2.20;;;;;;;5.34;100.00;99384.91;5034688;28;20108;-56
2022/09/21 03:37:25;;;;;;;4.72;1.70;;;;;;;5.52;100.00;99381.59;5038146;28;20021;-53
2022/09/21 03:40:11;;;;;;;3.00;2.28;;;;;;;5.55;100.00;99383.22;5034648;28;20057;-50
2022/09/21 03:42:56;;;;;;;5.18;1.90;;;;;;;5.46;100.00;99373.19;5044972;28;20043;-55
2022/09/21 03:45:41;;;;;;;4.20;2.20;;;;;;;5.41;100.00;99383.75;5029434;28;20044;-56
2022/09/21 03:48:27;;;;;;;4.05;2.30;;;;;;;5.33;100.00;99385.78;5052021;28;20098;-55
2022/09/21 03:51:11;;;;;;;2.70;1.88;;;;;;;5.29;100.00;99383.31;5042247;28;20051;-56
2022/09/21 03:53:56;;;;;;;3.92;1.92;;;;;;;5.23;100.00;99388.72;5040320;28;20112;-55
2022/09/21 03:56:41;;;;;;;2.85;2.00;;;;;;;5.39;100.00;99396.81;5039912;28;20044;-54
2022/09/21 03:59:25;;;;;;;4.18;2.00;;;;;;;5.36;100.00;99394.31;5033380;28;20549;-57
2022/09/21 04:02:10;;;;;;;2.58;1.63;;;;;;;5.59;100.00;99407.34;5035337;28;20187;-55
2022/09/21 04:04:54;;;;;;;3.75;1.83;;;;;;;5.55;100.00;99404.88;5031813;28;20120;-55
2022/09/21 04:07:40;;;;;;;3.25;1.95;;;;;;;5.39;100.00;99401.16;5040030;28;20035;-57
2022/09/21 04:10:31;;;;;;;3.47;2.17;;;;;;;5.52;100.00;99405.00;5034686;28;20064;-54
2022/09/21 04:13:15;;;;;;;2.80;2.10;;;;;;;5.51;100.00;99405.91;5035084;28;20657;-55
2022/09/21 04:16:00;;;;;;;3.03;1.90;;;;;;;5.65;100.00;99407.13;5037652;28;20041;-57
2022/09/21 04:18:49;;;;;;;2.60;1.67;;;;;;;5.81;100.00;99403.94;5037470;28;20124;-59
2022/09/21 04:21:37;;;;;;;4.72;1.95;;;;;;;5.74;100.00;99412.00;5074844;28;20048;-57
2022/09/21 04:24:24;;;;;;;2.95;2.08;;;;;;;5.64;100.00;99401.09;5034943;28;20444;-58
2022/09/21 04:27:11;;;;;;;3.78;2.33;;;;;;;5.59;100.00;99408.22;5038191;28;20107;-58
2022/09/21 04:29:56;;;;;;;3.42;1.70;;;;;;;5.53;100.00;99413.66;5049309;28;20469;-56
2022/09/21 04:32:43;;;;;;;3.28;2.30;;;;;;;5.53;100.00;99413.66;5039597;28;20052;-56
2022/09/21 04:35:28;;;;;;;6.95;2.55;;;;;;;5.61;100.00;99411.63;5038720;28;20036;-58
2022/09/21 04:38:12;;;;;;;3.47;2.25;;;;;;;5.72;100.00;99411.19;5036942;28;20113;-58
2022/09/21 04:40:58;;;;;;;3.65;1.90;;;;;;;5.68;100.00;99414.81;5041712;28;20124;-55
2022/09/21 04:43:44;;;;;;;3.67;2.40;;;;;;;5.55;100.00;99412.69;5043311;28;20538;-60
2022/09/21 04:46:29;;;;;;;3.97;2.05;;;;;;;5.57;100.00;99417.81;5037911;28;20037;-57
2022/09/21 04:49:14;;;;;;;3.28;1.92;;;;;;;5.54;100.00;99412.72;5040993;28;20393;-59
2022/09/21 04:51:58;;;;;;;3.38;2.38;;;;;;;5.52;100.00;99422.34;5035259;28;20055;-58
2022/09/21 04:54:43;;;;;;;5.53;1.98;;;;;;;5.57;100.00;99409.16;5042011;28;20080;-57
2022/09/21 04:57:28;;;;;;;3.67;1.90;;;;;;;5.55;100.00;99417.88;5032948;28;20042;-55
2022/09/21 05:00:13;;;;;;;2.47;1.70;;;;;;;5.58;100.00;99408.28;5043933;28;20053;-57
2022/09/21 05:02:58;;;;;;;3.92;2.20;;;;;;;5.71;100.00;99417.31;5037954;28;20052;-60
2022/09/21 05:05:51;;;;;;;3.35;2.05;;;;;;;5.74;100.00;99417.19;5034417;28;20043;-61
2022/09/21 05:11:39;;;;;;;6.97;2.28;;;;;;;6.02;100.00;99434.31;5035869;28;20125;-57
2022/09/21 05:14:23;;;;;;;2.80;1.90;;;;;;;6.01;100.00;99436.97;5036307;28;20442;-55
2022/09/21 05:17:08;;;;;;;4.60;2.15;;;;;;;6.19;100.00;99432.84;5034762;28;20057;-52
2022/09/21 05:19:53;;;;;;;4.03;2.00;;;;;;;6.06;100.00;99439.41;5043214;28;20174;-49
2022/09/21 05:22:37;;;;;;;2.97;2.00;;;;;;;6.13;100.00;99438.28;5040404;28;20057;-55
2022/09/21 05:25:22;;;;;;;3.50;2.00;;;;;;;6.20;100.00;99431.91;5035331;28;20121;-50
2022/09/21 05:28:07;;;;;;;4.75;2.10;;;;;;;6.19;100.00;99434.59;5034632;28;20033;-49
2022/09/21 05:31:14;;;;;;;3.67;1.83;;;;;;;6.50;100.00;99441.16;5030965;28;20046;-49
2022/09/21 05:34:22;;;;;;;4.82;1.90;;;;;;;6.63;100.00;99444.97;5045153;28;20041;-50
2022/09/21 05:37:16;;;;;;;4.22;2.50;;;;;;;6.62;100.00;99442.44;5044095;28;20638;-51
2022/09/21 05:40:01;;;;;;;3.83;2.03;;;;;;;6.80;100.00;99448.63;5053047;28;20144;-52
2022/09/21 05:42:46;;;;;;;2.95;1.83;;;;;;;7.05;100.00;99451.94;5042200;28;20045;-54
2022/09/21 05:45:31;;;;;;;2.45;1.70;;;;;;;7.22;100.00;99457.28;5037927;28;20042;-48
2022/09/21 05:48:25;;;;;;;3.67;2.10;;;;;;;7.17;100.00;99455.75;5046547;28;20037;-52
2022/09/21 05:51:16;;;;;;;2.80;1.80;;;;;;;7.21;100.00;99454.72;5041806;28;20040;-53
2022/09/21 05:54:18;;;;;;;3.53;1.92;;;;;;;7.45;100.00;99459.78;5047172;28;20461;-53
2022/09/21 05:57:09;;;;;;;3.05;1.92;;;;;;;7.50;100.00;99461.28;5047523;28;20090;-53
2022/09/21 06:00:02;;;;;;;3.72;1.70;;;;;;;7.73;100.00;99466.34;5048572;28;20474;-55
2022/09/21 06:03:14;;;;;;;3.28;2.08;;;;;;;7.97;100.00;99460.91;5045417;28;20109;-54
2022/09/21 06:05:59;;;;;;;3.95;1.80;;;;;;;8.06;100.00;99465.69;5047620;28;20064;-58
2022/09/21 06:08:43;;;;;;;4.07;2.03;;;;;;;8.20;98.44;99467.69;5037452;28;20527;-54
2022/09/21 06:11:28;;;;;;;3.17;2.03;;;;;;;8.31;99.68;99468.91;5046387;28;20108;-52
2022/09/21 06:14:12;;;;;;;3.75;1.88;;;;;;;8.36;97.69;99469.53;5046563;28;20112;-50
2022/09/21 06:16:57;;;;;;;3.15;1.73;;;;;;;8.42;97.03;99463.19;5043812;28;20388;-54
2022/09/21 06:19:41;;;;;;;4.47;1.77;;;;;;;8.79;95.33;99471.84;5037365;28;20049;-50
2022/09/21 06:22:26;;;;;;;5.70;1.70;;;;;;;8.80;93.76;99465.69;5040351;28;20041;-52
2022/09/21 06:25:11;;;;;;;3.47;1.98;;;;;;;9.11;92.67;99471.13;5043908;28;20098;-53
2022/09/21 06:28:04;;;;;;;4.20;2.10;;;;;;;8.76;93.71;99474.63;5042492;28;20040;-57
2022/09/21 06:30:53;;;;;;;2.78;1.70;;;;;;;9.23;92.63;99478.38;5045376;28;20041;-51
2022/09/21 06:33:37;;;;;;;4.88;2.08;;;;;;;9.12;90.40;99478.06;5040609;28;20060;-53
2022/09/21 06:36:22;;;;;;;4.57;1.90;;;;;;;8.97;90.72;99477.06;5038512;28;20108;-56
2022/09/21 06:39:06;;;;;;;3.70;1.88;;;;;;;9.31;90.85;99487.56;5040383;28;20449;-55
2022/09/21 06:41:51;;;;;;;2.72;1.92;;;;;;;9.77;87.95;99484.31;5036193;28;20396;-52
2022/09/21 06:44:36;;;;;;;2.65;1.85;;;;;;;10.21;87.32;99487.19;5034586;28;20041;-56
2022/09/21 06:47:21;;;;;;;4.75;2.55;;;;;;;10.32;83.70;99481.34;5035706;28;20120;-52
2022/09/21 06:50:06;;;;;;;3.42;2.17;;;;;;;10.33;85.52;99489.09;5036160;28;20037;-50
2022/09/21 06:52:50;;;;;;;3.53;2.03;;;;;;;10.21;84.34;99487.19;5039983;28;20463;-53
2022/09/21 06:55:35;;;;;;;3.40;2.10;;;;;;;10.17;84.56;99489.13;5035490;28;20143;-54
2022/09/21 06:58:20;;;;;;;5.90;2.30;;;;;;;10.40;84.43;99492.22;5039249;28;20159;-56
2022/09/21 07:01:06;;;;;;;4.43;2.25;;;;;;;10.89;81.60;99490.38;5044272;28;20951;-50
2022/09/21 07:03:51;;;;;;;4.10;2.70;;;;;;;10.77;81.27;99485.88;5041381;28;20123;-55
2022/09/21 07:06:35;;;;;;;3.35;2.33;;;;;;;10.35;83.01;99491.63;5075144;28;20037;-53
2022/09/21 07:09:20;;;;;;;3.10;1.98;;;;;;;10.55;84.18;99503.66;5043671;28;20101;-53
2022/09/21 07:12:07;;;;;;;4.25;2.17;;;;;;;11.94;78.76;99497.28;5041962;28;20379;-52
2022/09/21 07:14:51;;;;;;;3.08;2.28;;;;;;;10.21;84.65;99492.41;5039161;28;20029;-48
2022/09/21 07:17:38;;;;;;;2.92;1.88;;;;;;;10.18;85.00;99500.44;5040599;28;20130;-53
2022/09/21 07:20:23;;;;;;;3.00;2.17;;;;;;;9.94;86.44;99490.41;5033795;28;20124;-51
2022/09/21 07:23:15;;;;;;;3.88;2.20;;;;;;;10.74;83.23;99480.81;5039850;28;20472;-55
2022/09/21 07:26:11;;;;;;;3.03;1.92;;;;;;;10.88;81.39;99491.31;5040431;28;20037;-51
2022/09/21 07:28:55;;;;;;;2.97;1.63;;;;;;;11.83;78.42;99487.47;5036777;28;20053;-52
2022/09/21 07:31:42;;;;;;;3.33;2.22;;;;;;;11.14;81.73;99488.09;5036410;28;20057;-54
2022/09/21 07:34:27;;;;;;;3.20;1.83;;;;;;;11.28;80.04;99487.25;5038180;28;20032;-54
2022/09/21 07:37:13;;;;;;;4.57;2.17;;;;;;;11.87;77.52;99485.47;5037547;28;20106;-53
2022/09/21 07:39:57;;;;;;;3.22;1.63;;;;;;;12.07;76.65;99498.22;5034274;28;20045;-54
2022/09/21 07:42:43;;;;;;;2.25;1.80;;;;;;;11.01;80.01;99490.59;5034389;28;20073;-52
2022/09/21 07:45:29;;;;;;;3.15;1.80;;;;;;;10.75;82.72;99490.34;5038753;28;20049;-56
2022/09/21 07:48:14;;;;;;;3.58;1.80;;;;;;;10.19;84.47;99500.38;5042009;28;20179;-52
2022/09/21 07:51:04;;;;;;;2.25;1.58;;;;;;;10.24;86.28;99500.09;5038625;28;20037;-50
2022/09/21 07:53:57;;;;;;;3.72;1.83;;;;;;;10.29;85.93;99505.09;5034519;28;20108;-52
2022/09/21 07:59:04;;;;;;;4.72;2.50;;;;;;;10.96;83.86;99503.97;5039354;28;20504;-52
2022/09/21 07:59:46;;;;;;;4.03;1.77;;;;;;;11.89;80.89;99502.81;5041831;28;20036;-52
2022/09/21 08:02:31;;;;;;;3.78;1.55;;;;;;;13.28;73.84;99506.25;5073652;28;20518;-53
2022/09/21 08:05:16;;;;;;;5.60;1.60;;;;;;;12.96;73.67;99506.63;5035757;28;20389;-53
2022/09/21 08:08:00;;;;;;;4.13;1.52;;;;;;;12.50;74.87;99496.41;5037262;28;20568;-54
2022/09/21 08:10:45;;;;;;;2.78;1.65;;;;;;;12.01;77.22;99501.19;5035693;28;20112;-52
2022/09/21 08:13:30;;;;;;;2.67;1.58;;;;;;;11.16;80.68;99510.66;5034878;28;20037;-55
2022/09/21 08:16:15;;;;;;;2.67;1.70;;;;;;;12.10;77.53;99512.94;5046261;28;20128;-55
2022/09/21 08:19:01;;;;;;;2.78;1.70;;;;;;;11.85;77.61;99511.00;5034370;28;20033;-53
2022/09/21 08:21:48;;;;;;;4.05;2.03;;;;;;;11.30;79.00;99509.00;5035618;28;20380;-55
2022/09/21 08:24:34;;;;;;;3.40;1.60;;;;;;;11.32;80.22;99518.47;5042873;28;20194;-53
2022/09/21 08:27:19;;;;;;;2.03;1.55;;;;;;;11.26;80.76;99518.81;5035813;28;20124;-56
2022/09/21 08:30:06;;;;;;;3.90;1.70;;;;;;;11.29;81.71;99513.38;5035577;28;20041;-52
2022/09/21 08:32:53;;;;;;;2.17;1.40;;;;;;;11.95;81.36;99518.19;5038822;28;20131;-55
2022/09/21 08:35:37;;;;;;;2.65;1.50;;;;;;;13.33;75.19;99512.03;5034959;28;20075;-54
2022/09/21 08:38:22;;;;;;;2.90;1.40;;;;;;;13.85;72.39;99514.66;5037819;28;20033;-53
2022/09/21 08:41:22;;;;;;;1.58;1.20;;;;;;;14.63;66.73;99510.91;5031947;28;20056;-49
2022/09/21 08:44:16;;;;;;;2.42;1.40;;;;;;;13.65;68.56;99509.00;5039387;28;20048;-50
2022/09/21 08:47:29;;;;;;;3.03;1.40;;;;;;;13.92;67.88;99517.69;5036511;28;20086;-55
2022/09/21 08:50:23;;;;;;;3.50;1.60;;;;;;;14.36;67.50;99525.16;5044903;28;20211;-55
2022/09/21 08:53:47;;;;;;;2.42;1.20;;;;;;;14.86;64.42;99524.22;5045471;28;20374;-53
2022/09/21 08:56:33;;;;;;;1.92;1.30;;;;;;;14.56;65.99;99525.50;5042677;28;20053;-54
2022/09/21 08:59:17;;;;;;;2.08;1.23;;;;;;;15.29;62.76;99516.66;5038424;28;20099;-56
2022/09/21 09:02:30;;;;;;;2.47;1.17;;;;;;;15.88;61.83;99512.09;5042404;28;20104;-56
2022/09/21 09:05:48;;;;;;;2.95;1.35;;;;;;;15.89;60.85;99519.06;5044268;28;20056;-56
2022/09/21 09:08:45;;;;;;;3.03;1.23;;;;;;;15.98;61.06;99520.16;5014108;28;20072;-54
2022/09/21 09:11:48;;;;;;;2.65;1.40;;;;;;;16.49;59.36;99523.19;5024522;28;20041;-58
2022/09/21 09:15:17;;;;;;;3.10;1.40;;;;;;;15.76;61.61;99519.19;5029985;28;20159;-53
2022/09/21 09:18:22;;;;;;;2.65;1.20;;;;;;;17.22;56.88;99521.66;5025885;28;20057;-55
2022/09/21 09:21:20;;;;;;;2.85;1.08;;;;;;;16.39;60.61;99523.09;5023652;28;20428;-53
2022/09/21 09:24:16;;;;;;;2.10;1.27;;;;;;;17.17;57.01;99529.19;5029317;28;20033;-53
2022/09/21 09:27:43;;;;;;;1.88;1.08;;;;;;;17.10;57.43;99531.50;5025756;28;20159;-53
2022/09/21 09:30:33;;;;;;;2.83;1.45;;;;;;;16.70;57.36;99517.09;4930853;29;20039;-53
2022/09/21 09:33:27;;;;;;;3.17;1.20;;;;;;;16.50;57.60;99519.56;4919286;29;20039;-53
2022/09/21 09:36:12;;;;;;;1.95;0.98;;;;;;;17.15;56.96;99513.44;4910546;29;20503;-51
2022/09/21 09:39:00;;;;;;;1.48;0.95;;;;;;;18.20;55.09;99523.06;4909390;29;20040;-54
2022/09/21 09:42:09;;;;;;;2.08;1.02;;;;;;;18.62;52.04;99513.22;4909818;29;20499;-53
2022/09/21 09:45:06;;;;;;;2.25;1.25;;;;;;;16.94;56.39;99514.22;4923960;29;20560;-53
2022/09/21 09:48:19;;;;;;;1.95;1.13;;;;;;;17.52;54.37;99508.59;4939513;29;20062;-54
2022/09/21 09:51:03;;;;;;;2.15;1.20;;;;;;;16.98;56.96;99512.16;4942194;29;20139;-57
2022/09/21 09:53:48;;;;;;;2.20;0.95;;;;;;;16.42;57.97;99516.72;4947832;29;20067;-60
2022/09/21 09:56:33;;;;;;;1.30;0.90;;;;;;;16.98;55.22;99513.00;4937919;29;20082;-60
2022/09/21 09:59:27;;;;;;;22.50;1.80;;;;;;;16.93;56.13;99507.25;4932613;29;20839;-58
2022/09/21 10:02:45;;;;;;;3.50;1.20;;;;;;;16.61;56.63;99506.28;4935455;29;20051;-56
2022/09/21 10:05:33;;;;;;;3.10;0.77;;;;;;;16.57;56.19;99512.81;4913893;28;20491;-60
2022/09/21 10:08:30;;;;;;;2.63;0.90;;;;;;;16.93;55.03;99503.75;5011155;28;20164;-60
2022/09/21 10:11:18;;;;;;;3.70;0.77;;;;;;;17.64;53.79;99506.69;5024362;28;20072;-60
2022/09/21 10:14:13;;;;;;;2.03;1.02;;;;;;;17.32;54.85;99497.91;5025019;28;20045;-59
2022/09/21 10:17:04;;;;;;;2.42;0.88;;;;;;;17.15;55.13;99489.59;5026379;28;20419;-58
2022/09/21 10:19:59;;;;;;;2.60;0.82;;;;;;;15.72;58.25;99496.63;5024170;28;20307;-58
2022/09/21 10:22:54;;;;;;;1.40;0.63;;;;;;;16.93;55.02;99488.72;5038018;28;20136;-60
2022/09/21 10:25:41;;;;;;;2.13;0.60;;;;;;;17.91;52.21;99494.66;5014970;28;20160;-60
2022/09/21 10:28:27;;;;;;;1.35;0.85;;;;;;;17.61;52.24;99491.88;5025371;28;20073;-60
2022/09/21 10:31:22;;;;;;;2.58;0.95;;;;;;;15.42;59.53;99492.78;5028393;28;20210;-59
2022/09/21 10:34:14;;;;;;;1.83;1.17;;;;;;;15.98;60.54;99491.09;5027648;28;20143;-59
2022/09/21 10:37:02;;;;;;;2.28;0.70;;;;;;;19.17;50.85;99485.25;5024612;28;20183;-58
2022/09/21 10:39:46;;;;;;;1.65;0.80;;;;;;;17.62;53.15;99488.28;5023490;28;20063;-58
2022/09/21 10:42:40;;;;;;;1.65;0.70;;;;;;;17.83;53.00;99490.03;5032213;28;20045;-60
2022/09/21 10:45:30;;;;;;;1.38;0.70;;;;;;;18.61;50.40;99488.50;5034694;28;20052;-59
2022/09/21 10:48:20;;;;;;;1.60;0.70;;;;;;;18.69;50.26;99485.97;5035958;28;20607;-57
2022/09/21 10:51:04;;;;;;;1.92;0.70;;;;;;;19.39;48.36;99476.06;5034849;28;20049;-57
2022/09/21 10:53:49;;;;;;;2.53;0.50;;;;;;;18.05;49.68;99482.84;5043443;28;20126;-58
2022/09/21 10:56:34;;;;;;;2.08;0.70;;;;;;;17.93;50.74;99482.94;5047768;28;20064;-56
2022/09/21 10:59:18;;;;;;;1.63;0.65;;;;;;;18.94;49.63;99483.72;5046468;28;20087;-57
2022/09/21 11:02:22;;;;;;;1.80;0.80;;;;;;;18.34;50.80;99480.25;5032495;28;20045;-57
2022/09/21 11:05:16;;;;;;;2.20;1.20;;;;;;;18.88;51.52;99479.00;5037764;28;20048;-57
2022/09/21 11:08:17;;;;;;;1.90;0.70;;;;;;;18.69;51.06;99483.31;5045129;28;20040;-57
2022/09/21 11:11:07;;;;;;;1.88;1.20;;;;;;;16.43;56.64;99474.31;5042665;28;20041;-56
2022/09/21 11:13:56;;;;;;;2.38;0.80;;;;;;;14.78;61.53;99478.13;5037945;28;20399;-57
2022/09/21 11:17:10;;;;;;;2.00;0.70;;;;;;;17.20;56.23;99475.97;5065059;28;20037;-59
2022/09/21 11:20:04;;;;;;;1.73;0.73;;;;;;;18.58;50.90;99470.19;5017926;28;20077;-56
2022/09/21 11:23:19;;;;;;;1.00;0.60;;;;;;;16.00;56.45;99476.81;5006773;28;20053;-57
2022/09/21 11:26:10;;;;;;;1.65;0.63;;;;;;;15.03;59.92;99480.75;5016935;28;20509;-54
2022/09/21 11:29:09;;;;;;;0.98;0.60;;;;;;;17.75;52.74;99479.25;5017502;28;20049;-51
2022/09/21 11:32:19;;;;;;;2.72;0.80;;;;;;;17.30;53.19;99468.91;5023535;28;20037;-54
2022/09/21 11:35:10;;;;;;;1.00;0.60;;;;;;;16.82;57.54;99473.75;5017085;28;20341;-50
2022/09/21 11:38:04;;;;;;;1.98;0.63;;;;;;;16.32;57.50;99469.88;5010150;28;20096;-57
2022/09/21 11:41:14;;;;;;;1.27;0.63;;;;;;;18.06;52.17;99472.09;5016363;28;20077;-52
2022/09/21 11:44:26;;;;;;;1.13;0.60;;;;;;;17.35;52.43;99468.50;5015653;28;20049;-58
2022/09/21 11:47:13;;;;;;;1.17;0.65;;;;;;;18.42;50.47;99466.31;5017655;28;20088;-57
2022/09/21 11:50:20;;;;;;;1.33;0.80;;;;;;;16.29;54.29;99467.47;5011484;28;20653;-47
2022/09/21 11:53:30;;;;;;;1.00;0.70;;;;;;;17.89;49.95;99470.13;5010176;28;20042;-51
2022/09/21 11:56:39;;;;;;;1.08;0.65;;;;;;;17.88;50.17;99458.66;5023581;28;20136;-56
2022/09/21 11:59:42;;;;;;;0.75;0.50;;;;;;;19.02;48.25;99447.66;5026232;28;20130;-51
2022/09/21 12:02:50;;;;;;;1.33;0.70;;;;;;;17.44;51.91;99451.00;5028584;28;20048;-52
2022/09/21 12:05:48;;;;;;;0.90;0.50;;;;;;;15.47;56.86;99456.31;5024799;28;20542;-54
2022/09/21 12:08:57;;;;;;;1.08;0.55;;;;;;;17.46;52.44;99447.22;5025755;28;20041;-48
2022/09/21 12:12:08;;;;;;;2.60;0.60;;;;;;;18.33;49.35;99441.44;5025816;28;20236;-51
2022/09/21 12:15:01;;;;;;;2.38;0.70;;;;;;;17.97;50.64;99449.88;5014583;28;20045;-55
2022/09/21 12:18:15;;;;;;;0.90;0.50;;;;;;;17.84;49.06;99433.41;5013316;28;20056;-54
2022/09/21 12:21:10;;;;;;;2.25;0.50;;;;;;;15.54;54.90;99446.94;5030261;28;20386;-54
2022/09/21 12:24:04;;;;;;;1.27;0.70;;;;;;;17.64;49.91;99440.47;5017007;28;20132;-53
2022/09/21 12:26:54;;;;;;;1.92;0.93;;;;;;;18.26;48.52;99436.84;5026663;28;20786;-53
2022/09/21 12:29:47;;;;;;;1.08;0.50;;;;;;;19.76;45.82;99434.53;5031934;28;20072;-54
2022/09/21 12:33:02;;;;;;;2.88;0.63;;;;;;;19.63;45.78;99434.03;5029698;28;20084;-53
2022/09/21 12:35:52;;;;;;;1.02;0.50;;;;;;;19.85;43.57;99430.13;5029956;28;20132;-53
2022/09/21 12:38:57;;;;;;;1.17;0.68;;;;;;;18.21;47.87;99435.44;5039497;28;20049;-52
2022/09/21 12:41:51;;;;;;;1.05;0.63;;;;;;;18.33;47.96;99437.94;5044177;28;20053;-56
2022/09/21 12:44:55;;;;;;;1.02;0.60;;;;;;;17.19;50.24;99431.91;5049809;28;20056;-55
2022/09/21 12:47:56;;;;;;;1.30;0.45;;;;;;;17.09;50.51;99435.38;5040455;28;20048;-54
2022/09/21 12:50:42;;;;;;;;;;;;;;;16.38;53.67;99435.03;5036101;28;20046;-52
2022/09/21 12:53:30;;;;;;;1.23;0.68;;;;;;;16.79;52.61;99438.78;5039055;28;19923;-53
2022/09/21 12:56:42;;;;;;;0.70;0.50;;;;;;;19.08;47.95;99428.47;5035675;28;20392;-51
2022/09/21 12:59:38;;;;;;;1.23;0.60;;;;;;;18.95;46.52;99426.16;5048195;28;20124;-54
2022/09/21 13:02:32;;;;;;;0.90;0.50;;;;;;;18.16;48.47;99435.03;5043867;28;20057;-52
2022/09/21 13:05:29;;;;;;;1.73;0.75;;;;;;;19.12;46.72;99427.25;5043323;28;20067;-53
2022/09/21 13:08:18;;;;;;;1.33;0.70;;;;;;;17.51;49.34;99430.97;5039661;28;20541;-55
2022/09/21 13:11:06;;;;;;;2.13;0.60;;;;;;;15.78;55.11;99432.75;5039263;28;20480;-56
2022/09/21 13:13:58;;;;;;;1.42;0.70;;;;;;;16.12;55.34;99434.50;5043611;28;20434;-55
2022/09/21 13:16:42;;;;;;;0.90;0.50;;;;;;;15.68;55.66;99435.28;5039780;28;20051;-53
2022/09/21 13:19:31;;;;;;;2.05;0.82;;;;;;;15.63;57.13;99432.19;5049187;28;20468;-49
2022/09/21 13:22:18;;;;;;;0.93;0.60;;;;;;;16.92;53.29;99425.34;5035567;28;20555;-54
2022/09/21 13:25:14;;;;;;;0.90;0.55;;;;;;;16.97;50.89;99420.50;5043207;28;20036;-53
2022/09/21 13:28:15;;;;;;;2.42;0.80;;;;;;;16.69;51.98;99421.03;5036187;28;20111;-51
2022/09/21 13:31:17;;;;;;;0.93;0.60;;;;;;;17.47;49.44;99425.09;5038690;28;20041;-52